WXcenter Banner NOAA Logo links to NOAA website FRD Logo links to FRD website

NOAA INL CURRENT OBSERVATIONS


NOAA AIR RESOURCES LABORATORY
MESONET WEATHER CONDITIONS FOR 18-Nov-17

Towers located at INL Facilities:

                      Time  Dir/Spd  Temp  WC  RH  Pres.
Location              MST   deg/mph   (F)  (F)  %  In.Hg

ATR                  14:00  117/  3    33  31  54  25.38
CFA                  14:00  265/  8    35  29  53  25.32
CIT                  14:00  296/  5    34  29  59  25.36
INTEC                14:00  336/  3    33  31  54  25.36
MFC                  14:00  290/  5    32  28  61  25.14
NRF                  14:00    4/  4    32  28  55  25.42
RWMC                 14:00  232/  9    35  28  52  25.27
SMC                  14:00  351/  1    30  30  65  25.49

Other towers located inside the INL:

                      Time  Dir/Spd  Temp  WC  RH  Pres.
Location              MST   deg/mph   (F)  (F)  %  In.Hg

Base of Howe Peak    14:00  169/  2    33  33  53  25.38
Deadman Canyon       14:00  278/  3    34  32  50  25.16
Lost River           14:00  222/ 10    35  28  51  25.29
Rover                14:00  302/  6    31  25  63  25.26
Sand Dunes           14:00  343/  3    30  27  61  25.47

Towers located outside the INL:

                      Time  Dir/Spd  Temp  WC  RH  Pres.
Location              MST   deg/mph   (F)  (F)  %  In.Hg

Aberdeen             14:00  208/  9    40  34  44  25.84
Arco                 14:00  267/  3    34  34  45
Atomic City          14:00  225/ 12    36  28  50  25.27
Blackfoot            14:00  238/  9    38  32  44  25.77
Blue Dome            14:00  171/  9    26  17  73
Cox's Well           14:00  222/ 11    35  27  51
Craters of the Moon  14:00  237/ 16    33  22  69  24.35
Dubois               14:00  140/  7    28  21  63  24.85
Fort Hall            14:00  252/  7    40  35  41  25.79
Hamer                14:00  179/  7    30  23  63
Howe                 14:00   84/  5    31  26  59
Idaho Falls (REC)    14:00  233/  8    36  30  56  25.57
Kettle Butte         14:00  206/ 12    33  24  62  25.09
Minidoka             14:00  180/  4    39  36  46  25.96
Monteview            14:00   54/  6    29  23  69  25.48
Richfield            14:00   58/  3    37  35  52  25.91
Roberts              14:00  311/  5    32  27  69
Sugar City           14:00  237/ 14    34  24  64  25.38
Taber                14:00  233/ 13    37  29  53
Terreton             14:00  279/  7    31  24  59  25.48

Updated every 5 minutes. Unreviewed data; maintenance may cause some errors.
Forecast: 526-8884   Info: 526-2744
            

This page automatically refreshes every 5 minutes.


Modified: March 1, 2011
Dept. of Commerce |  NOAA |  NOAA Research |  ARL |  FRD Privacy |  Disclaimer |  Information Quality |  webmaster